Time;durP1;ratioP1;P1;durP2;ratioP2;P2;SDS_P1;SDS_P2;PMS_P1;PMS_P2;Temp;Humidity;BMP_temperature;BMP_pressure;BME280_temperature;BME280_humidity;BME280_pressure;Samples;Min_cycle;Max_cycle;Signal;HPM_P1;HPM_P2
2021/08/08 00:01:41;;;;;;;8.95;4.25;;;;;;;12.76;100.00;99304.42;1713368;83;21535;-75
2021/08/08 00:04:08;;;;;;;8.33;3.87;;;;;;;12.73;100.00;99307.27;1713402;83;20964;-75
2021/08/08 00:06:34;;;;;;;13.75;3.95;;;;;;;12.71;100.00;99298.54;1713478;83;21097;-74
2021/08/08 00:09:02;;;;;;;12.68;4.33;;;;;;;12.68;100.00;99299.24;1713374;83;20877;-75
2021/08/08 00:11:29;;;;;;;15.08;4.42;;;;;;;12.65;100.00;99307.37;1713453;83;20932;-75
2021/08/08 00:13:57;;;;;;;9.03;4.22;;;;;;;12.61;100.00;99311.93;1713350;83;21594;-71
2021/08/08 00:16:26;;;;;;;16.97;4.45;;;;;;;12.58;100.00;99307.09;1713416;83;21445;-71
2021/08/08 00:18:53;;;;;;;10.03;4.17;;;;;;;12.58;100.00;99306.52;1713343;83;21157;-76
2021/08/08 00:21:21;;;;;;;13.53;3.70;;;;;;;12.57;100.00;99304.91;1713283;83;20869;-76
2021/08/08 00:23:49;;;;;;;9.53;3.65;;;;;;;12.55;100.00;99300.30;1713419;83;20932;-77
2021/08/08 00:26:16;;;;;;;6.97;3.87;;;;;;;12.54;100.00;99306.95;1713503;83;20924;-77
2021/08/08 00:28:44;;;;;;;11.05;3.80;;;;;;;12.51;100.00;99307.63;1713413;83;20932;-76
2021/08/08 00:31:10;;;;;;;10.65;4.28;;;;;;;12.48;100.00;99301.41;1713361;83;21085;-76
2021/08/08 00:33:37;;;;;;;10.23;3.95;;;;;;;12.45;100.00;99301.50;1713651;83;20939;-75
2021/08/08 00:36:05;;;;;;;11.43;4.25;;;;;;;12.43;100.00;99305.16;1713459;83;20945;-76
2021/08/08 00:38:32;;;;;;;17.90;4.37;;;;;;;12.40;100.00;99299.52;1713328;83;21451;-74
2021/08/08 00:41:00;;;;;;;11.20;4.40;;;;;;;12.36;100.00;99302.70;1713432;83;21534;-74
2021/08/08 00:43:28;;;;;;;7.37;3.75;;;;;;;12.35;100.00;99306.59;1713372;83;21184;-74
2021/08/08 00:45:57;;;;;;;7.70;4.15;;;;;;;12.33;100.00;99310.24;1713258;83;21526;-75
2021/08/08 00:48:24;;;;;;;9.98;3.67;;;;;;;12.31;100.00;99315.27;1713390;83;20941;-75
2021/08/08 00:50:53;;;;;;;9.45;3.83;;;;;;;12.28;100.00;99318.13;1713344;83;20936;-75
2021/08/08 00:53:22;;;;;;;14.63;4.95;;;;;;;12.26;100.00;99313.52;1713929;82;20924;-75
2021/08/08 00:55:49;;;;;;;9.28;3.95;;;;;;;12.24;100.00;99325.42;1735616;82;22138;-75
2021/08/08 00:58:16;;;;;;;8.63;3.55;;;;;;;12.26;100.00;99324.52;1735520;82;21460;-75
2021/08/08 01:00:45;;;;;;;10.35;3.35;;;;;;;12.26;100.00;99326.47;1743585;82;20905;-75
2021/08/08 01:03:13;;;;;;;5.92;3.17;;;;;;;12.22;100.00;99329.08;1735690;82;20945;-75
2021/08/08 01:05:47;;;;;;;9.15;3.83;;;;;;;12.18;100.00;99324.80;1743801;81;21511;-75
2021/08/08 01:08:19;;;;;;;7.70;3.70;;;;;;;12.17;100.00;99325.14;1735644;82;21173;-75
2021/08/08 01:10:46;;;;;;;14.95;3.60;;;;;;;12.14;100.00;99322.48;1735134;82;21444;-75
2021/08/08 01:13:13;;;;;;;10.72;4.37;;;;;;;12.11;100.00;99320.98;1735605;82;20986;-75
2021/08/08 01:15:42;;;;;;;10.85;3.60;;;;;;;12.07;100.00;99318.09;1735621;82;20913;-76
2021/08/08 01:18:12;;;;;;;8.83;3.30;;;;;;;12.05;100.00;99318.99;1719087;82;20957;-75
2021/08/08 01:20:39;;;;;;;13.68;3.70;;;;;;;12.05;100.00;99323.12;1743708;82;21184;-75
2021/08/08 01:23:08;;;;;;;12.78;4.05;;;;;;;12.04;100.00;99324.25;1735792;82;21424;-76
2021/08/08 01:25:36;;;;;;;7.10;3.50;;;;;;;12.05;100.00;99330.00;1735613;82;20997;-76
2021/08/08 01:28:04;;;;;;;12.95;3.87;;;;;;;12.05;100.00;99327.81;1735897;82;20937;-76
2021/08/08 01:30:32;;;;;;;12.65;3.85;;;;;;;12.03;100.00;99336.39;1735751;82;20938;-76
2021/08/08 01:33:05;;;;;;;8.90;4.22;;;;;;;12.00;100.00;99332.13;1744023;82;21457;-75
2021/08/08 01:35:33;;;;;;;8.65;3.33;;;;;;;11.99;100.00;99341.52;1718948;82;21457;-76
2021/08/08 01:38:00;;;;;;;9.23;3.60;;;;;;;11.94;100.00;99328.75;1730832;82;21584;-75
2021/08/08 01:41:04;;;;;;;8.55;3.65;;;;;;;11.90;100.00;99321.72;1720458;83;20997;-76
2021/08/08 01:43:34;;;;;;;7.37;3.33;;;;;;;11.89;100.00;99323.42;1720849;82;21489;-74
2021/08/08 01:46:06;;;;;;;9.85;3.65;;;;;;;11.85;100.00;99331.53;1720531;82;21052;-77
2021/08/08 01:48:43;;;;;;;11.73;3.62;;;;;;;11.84;100.00;99335.41;1702919;83;21001;-78
2021/08/08 01:51:10;;;;;;;9.25;3.62;;;;;;;11.83;100.00;99340.67;1720608;83;20997;-73
2021/08/08 01:53:37;;;;;;;7.97;3.33;;;;;;;11.79;100.00;99333.41;1728705;82;21023;-73
2021/08/08 01:56:04;;;;;;;13.43;4.28;;;;;;;11.75;100.00;99332.42;1720695;82;20922;-73
2021/08/08 01:58:32;;;;;;;8.63;3.77;;;;;;;11.70;100.00;99333.41;1720527;83;21999;-73
2021/08/08 02:01:00;;;;;;;9.53;3.87;;;;;;;11.66;100.00;99330.27;1720451;83;21040;-73
2021/08/08 02:03:35;;;;;;;9.93;3.90;;;;;;;11.63;100.00;99333.10;1720814;83;20937;-73
2021/08/08 02:06:08;;;;;;;15.50;3.80;;;;;;;11.64;100.00;99338.03;1720241;83;20899;-72
2021/08/08 02:08:37;;;;;;;9.60;3.50;;;;;;;11.63;100.00;99341.35;1703073;82;20925;-73
2021/08/08 02:11:05;;;;;;;10.70;3.50;;;;;;;11.62;100.00;99351.30;1738401;82;21159;-72
2021/08/08 02:13:40;;;;;;;12.35;4.08;;;;;;;11.59;100.00;99352.77;1719003;83;20907;-74
2021/08/08 02:16:07;;;;;;;12.28;3.25;;;;;;;11.55;100.00;99347.70;1722317;82;20998;-74
2021/08/08 02:18:35;;;;;;;9.90;3.72;;;;;;;11.53;100.00;99354.91;1732904;82;20920;-74
2021/08/08 02:21:01;;;;;;;9.93;3.37;;;;;;;11.50;100.00;99356.13;1660416;86;20914;-75
2021/08/08 02:23:29;;;;;;;13.22;4.05;;;;;;;11.50;100.00;99356.13;1660754;86;21437;-74
2021/08/08 02:25:56;;;;;;;8.80;4.00;;;;;;;11.49;100.00;99351.19;1660441;86;20902;-74
2021/08/08 02:28:26;;;;;;;10.18;3.75;;;;;;;11.48;100.00;99359.77;1660624;86;20872;-75
2021/08/08 02:30:52;;;;;;;10.65;3.15;;;;;;;11.46;100.00;99359.28;1643548;87;20930;-75
2021/08/08 02:33:21;;;;;;;9.55;3.80;;;;;;;11.44;100.00;99360.17;1643795;86;20930;-73
2021/08/08 02:35:47;;;;;;;12.43;3.42;;;;;;;11.43;100.00;99363.48;1639949;86;21680;-74
2021/08/08 02:38:14;;;;;;;11.15;3.72;;;;;;;11.44;100.00;99368.42;1665914;85;20973;-74
2021/08/08 02:40:41;;;;;;;8.95;4.50;;;;;;;11.44;100.00;99367.05;1650478;87;20891;-74
2021/08/08 02:43:13;;;;;;;8.95;3.60;;;;;;;11.44;100.00;99367.05;1650836;87;20970;-74
2021/08/08 02:45:41;;;;;;;10.73;3.30;;;;;;;11.44;100.00;99373.34;1650746;87;20942;-74
2021/08/08 02:48:10;;;;;;;9.20;3.87;;;;;;;11.43;100.00;99373.11;1650455;87;21978;-74
2021/08/08 02:50:37;;;;;;;9.40;3.40;;;;;;;11.40;100.00;99375.70;1650254;87;20919;-74
2021/08/08 02:53:04;;;;;;;15.03;3.90;;;;;;;11.37;100.00;99379.09;1650466;87;20966;-74
2021/08/08 02:55:31;;;;;;;15.25;4.42;;;;;;;11.36;100.00;99382.98;1647209;86;20966;-74
2021/08/08 02:57:59;;;;;;;7.83;3.17;;;;;;;11.36;100.00;99376.11;1688317;84;20990;-74
2021/08/08 03:00:25;;;;;;;8.93;3.35;;;;;;;11.39;100.00;99376.27;1688267;85;21008;-74
2021/08/08 03:02:52;;;;;;;10.78;3.62;;;;;;;11.40;100.00;99377.88;1660841;85;20938;-73
2021/08/08 03:05:19;;;;;;;10.50;3.52;;;;;;;11.41;100.00;99378.69;1687123;83;21537;-74
2021/08/08 03:07:48;;;;;;;9.55;3.30;;;;;;;11.43;100.00;99380.55;1670991;83;21002;-73
2021/08/08 03:10:15;;;;;;;13.38;3.40;;;;;;;11.45;100.00;99379.66;1681461;85;21449;-74
2021/08/08 03:12:41;;;;;;;11.08;3.35;;;;;;;11.46;100.00;99378.52;1662661;85;21069;-73
2021/08/08 03:15:10;;;;;;;7.17;3.50;;;;;;;11.48;100.00;99380.38;1661320;86;21112;-73
2021/08/08 03:17:37;;;;;;;7.15;3.12;;;;;;;11.51;100.00;99379.73;1636818;86;21364;-76
2021/08/08 03:20:05;;;;;;;4.65;2.85;;;;;;;11.53;100.00;99383.77;1666973;86;21041;-75
2021/08/08 03:22:32;;;;;;;9.13;3.02;;;;;;;11.58;100.00;99379.45;1666536;86;21430;-76
2021/08/08 03:25:00;;;;;;;8.60;3.87;;;;;;;11.61;100.00;99369.73;1666500;86;21092;-74
2021/08/08 03:27:26;;;;;;;6.30;3.45;;;;;;;11.65;100.00;99369.89;1662644;86;21070;-75
2021/08/08 03:29:53;;;;;;;11.35;3.40;;;;;;;11.69;100.00;99375.78;1682864;83;20987;-75
2021/08/08 03:32:19;;;;;;;6.58;3.35;;;;;;;11.74;100.00;99373.43;1684642;84;21030;-75
2021/08/08 03:34:46;;;;;;;8.78;3.25;;;;;;;11.81;100.00;99374.58;1686921;84;21114;-74
2021/08/08 03:37:14;;;;;;;13.53;3.25;;;;;;;11.93;100.00;99377.22;1686811;84;20965;-75
2021/08/08 03:39:41;;;;;;;13.45;3.62;;;;;;;12.03;100.00;99379.61;1687499;84;20948;-75
2021/08/08 03:42:09;;;;;;;5.70;3.33;;;;;;;12.14;100.00;99378.08;1689834;84;21055;-75
2021/08/08 03:44:36;;;;;;;9.00;3.25;;;;;;;12.25;100.00;99379.33;1687242;84;21084;-76
2021/08/08 03:47:03;;;;;;;5.37;3.33;;;;;;;12.31;100.00;99384.89;1685319;84;20997;-75
2021/08/08 03:49:29;;;;;;;8.48;3.50;;;;;;;12.38;100.00;99385.19;1686149;84;21550;-75
2021/08/08 03:51:57;;;;;;;9.00;3.87;;;;;;;12.45;100.00;99378.59;1688509;84;21662;-75
2021/08/08 03:54:26;;;;;;;6.60;3.65;;;;;;;12.53;100.00;99374.98;1687739;83;21056;-75
2021/08/08 03:56:53;;;;;;;11.95;3.30;;;;;;;12.60;100.00;99371.70;1687611;84;21079;-75
2021/08/08 03:59:21;;;;;;;9.90;3.95;;;;;;;12.70;100.00;99373.27;1691991;83;21543;-73
2021/08/08 04:01:49;;;;;;;7.95;3.52;;;;;;;12.83;100.00;99370.80;1688028;84;21163;-74
2021/08/08 04:04:16;;;;;;;11.18;3.17;;;;;;;12.99;100.00;99370.44;1693169;84;21011;-73
2021/08/08 04:06:42;;;;;;;5.65;2.77;;;;;;;13.15;100.00;99365.94;1690450;84;21572;-73
2021/08/08 04:09:10;;;;;;;3.42;2.80;;;;;;;13.30;100.00;99370.61;1691324;83;21570;-73
2021/08/08 04:11:37;;;;;;;7.58;3.10;;;;;;;13.42;100.00;99366.52;1687553;84;21074;-73
2021/08/08 04:14:04;;;;;;;3.90;2.70;;;;;;;13.57;100.00;99368.65;1691992;84;21151;-73
2021/08/08 04:16:31;;;;;;;8.25;3.33;;;;;;;13.73;100.00;99371.58;1691134;84;20927;-73
2021/08/08 04:18:59;;;;;;;8.40;2.83;;;;;;;13.88;100.00;99377.80;1691148;84;21127;-73
2021/08/08 04:21:26;;;;;;;7.42;3.47;;;;;;;14.01;100.00;99378.63;1692069;83;20992;-73
2021/08/08 04:23:53;;;;;;;5.42;3.20;;;;;;;14.16;100.00;99375.20;1684140;84;21666;-74
2021/08/08 04:26:19;;;;;;;6.15;3.10;;;;;;;14.33;100.00;99375.56;1687862;83;21082;-73
2021/08/08 04:28:47;;;;;;;10.80;2.80;;;;;;;14.49;100.00;99373.15;1691784;84;20892;-73
2021/08/08 04:31:13;;;;;;;8.88;2.98;;;;;;;14.66;100.00;99376.83;1693325;84;21130;-73
2021/08/08 04:33:41;;;;;;;4.75;2.67;;;;;;;14.80;100.00;99375.31;1687798;84;20977;-73
2021/08/08 04:36:09;;;;;;;5.70;2.42;;;;;;;14.98;100.00;99375.05;1688873;83;20955;-74
2021/08/08 04:38:36;;;;;;;7.65;2.65;;;;;;;15.12;100.00;99371.30;1693023;84;21043;-76
2021/08/08 04:41:02;;;;;;;8.40;3.08;;;;;;;15.27;100.00;99376.09;1691986;84;21063;-76
2021/08/08 04:43:31;;;;;;;4.05;1.90;;;;;;;15.42;100.00;99382.84;1692029;83;21019;-76
2021/08/08 04:45:58;;;;;;;6.15;2.12;;;;;;;15.57;100.00;99386.27;1703023;83;20955;-75
2021/08/08 04:48:25;;;;;;;6.10;2.27;;;;;;;15.71;100.00;99389.98;1703165;84;20908;-78
2021/08/08 04:50:53;;;;;;;6.35;2.10;;;;;;;15.83;100.00;99387.97;1702997;84;21149;-73
2021/08/08 04:53:20;;;;;;;5.90;2.17;;;;;;;15.95;100.00;99387.67;1702947;84;20944;-73
2021/08/08 04:55:47;;;;;;;4.37;2.15;;;;;;;16.07;100.00;99384.25;1702734;84;20943;-74
2021/08/08 04:58:14;;;;;;;4.08;1.85;;;;;;;16.20;100.00;99376.64;1703232;84;21043;-74
2021/08/08 05:00:41;;;;;;;7.75;1.90;;;;;;;16.31;100.00;99366.63;1703029;84;20999;-73
2021/08/08 05:03:08;;;;;;;6.40;2.58;;;;;;;16.42;100.00;99373.81;1703122;84;21465;-76
2021/08/08 05:05:34;;;;;;;3.95;1.98;;;;;;;16.55;100.00;99375.91;1702941;84;20904;-75
2021/08/08 05:08:03;;;;;;;6.40;1.98;;;;;;;16.66;100.00;99371.45;1701207;83;20947;-75
2021/08/08 05:10:31;;;;;;;5.28;2.27;;;;;;;16.78;100.00;99374.89;1663646;85;20989;-77
2021/08/08 05:12:58;;;;;;;6.22;1.80;;;;;;;16.90;100.00;99378.70;1681283;85;21033;-75
2021/08/08 05:15:26;;;;;;;3.42;1.70;;;;;;;17.01;100.00;99379.75;1681321;85;20926;-76
2021/08/08 05:17:54;;;;;;;1.50;1.40;;;;;;;17.10;100.00;99367.29;1681527;85;21458;-76
2021/08/08 05:20:20;;;;;;;2.52;1.65;;;;;;;17.22;98.62;99366.94;1681284;85;21509;-73
2021/08/08 05:22:47;;;;;;;3.00;2.20;;;;;;;17.34;97.11;99374.50;1681586;85;20938;-76
2021/08/08 05:25:15;;;;;;;2.65;1.67;;;;;;;17.45;96.15;99375.53;1681497;85;21623;-77
2021/08/08 05:27:41;;;;;;;2.42;1.60;;;;;;;17.57;95.87;99378.73;1680883;85;21868;-77
2021/08/08 05:30:12;;;;;;;3.30;1.72;;;;;;;17.67;94.08;99378.17;1681133;85;21458;-69
2021/08/08 05:32:39;;;;;;;3.58;1.70;;;;;;;17.75;92.44;99374.37;1681520;85;20950;-71
2021/08/08 05:35:08;;;;;;;4.22;1.80;;;;;;;17.85;91.19;99370.77;1669267;83;20976;-71
2021/08/08 05:37:34;;;;;;;2.35;1.85;;;;;;;17.94;91.32;99370.72;1665814;83;21101;-71
2021/08/08 05:40:07;;;;;;;2.75;1.45;;;;;;;18.04;90.31;99372.09;1641752;86;21151;-71
2021/08/08 05:42:35;;;;;;;5.25;1.70;;;;;;;18.15;89.68;99374.47;1641772;87;21062;-71
2021/08/08 05:45:06;;;;;;;2.12;1.60;;;;;;;18.24;88.86;99374.23;1641694;87;20959;-71
2021/08/08 05:47:33;;;;;;;6.85;1.85;;;;;;;18.35;88.71;99382.16;1641931;87;21107;-71
2021/08/08 05:50:00;;;;;;;5.47;1.70;;;;;;;18.46;87.60;99382.55;1641591;87;21058;-71
2021/08/08 05:52:26;;;;;;;4.00;1.52;;;;;;;18.56;85.98;99385.26;1642282;86;22353;-71
2021/08/08 05:54:53;;;;;;;4.90;1.72;;;;;;;18.62;84.50;99385.19;1643357;86;21626;-71
2021/08/08 05:57:21;;;;;;;3.15;1.65;;;;;;;18.69;84.78;99388.08;1659412;86;21090;-71
2021/08/08 05:59:48;;;;;;;2.65;1.55;;;;;;;18.80;84.29;99387.66;1660098;86;21117;-71
2021/08/08 06:02:15;;;;;;;2.47;1.40;;;;;;;18.91;83.39;99382.25;1664165;85;21037;-71
2021/08/08 06:04:42;;;;;;;4.75;1.70;;;;;;;19.00;82.46;99385.57;1636245;87;21199;-71
2021/08/08 06:07:10;;;;;;;2.92;1.75;;;;;;;19.11;81.57;99380.92;1640778;84;21070;-70
2021/08/08 06:09:37;;;;;;;2.35;1.60;;;;;;;19.23;81.53;99381.88;1649915;86;21094;-70
2021/08/08 06:12:07;;;;;;;3.35;1.37;;;;;;;19.32;79.07;99385.98;1635752;87;21027;-70
2021/08/08 06:14:34;;;;;;;4.60;1.62;;;;;;;19.40;78.60;99391.05;1654258;85;20939;-71
2021/08/08 06:17:02;;;;;;;2.75;1.70;;;;;;;19.47;77.68;99395.31;1670796;86;21153;-70
2021/08/08 06:19:29;;;;;;;4.10;1.60;;;;;;;19.56;76.49;99401.42;1670553;86;20963;-67
2021/08/08 06:21:57;;;;;;;2.60;1.25;;;;;;;19.64;75.74;99398.91;1644396;86;20935;-67
2021/08/08 06:24:25;;;;;;;9.00;1.98;;;;;;;19.72;73.91;99401.19;1644639;84;20943;-67
2021/08/08 06:26:52;;;;;;;1.85;1.42;;;;;;;19.77;71.71;99403.62;1695570;84;20929;-67
2021/08/08 06:29:18;;;;;;;3.83;1.72;;;;;;;19.84;72.76;99404.30;1692550;84;23353;-67
2021/08/08 06:31:45;;;;;;;7.37;1.82;;;;;;;19.93;72.11;99408.98;1692483;84;20922;-67
2021/08/08 06:34:12;;;;;;;2.87;1.62;;;;;;;19.98;72.25;99407.25;1691797;84;21568;-68
2021/08/08 06:36:38;;;;;;;10.03;1.85;;;;;;;20.05;71.12;99411.50;1691574;84;21092;-67
2021/08/08 06:39:05;;;;;;;5.45;2.22;;;;;;;20.10;71.31;99404.99;1678328;83;20973;-68
2021/08/08 06:41:33;;;;;;;4.53;1.57;;;;;;;20.20;72.60;99404.89;1663586;86;21524;-68
2021/08/08 06:44:00;;;;;;;4.60;2.10;;;;;;;20.34;70.93;99408.38;1684741;83;20982;-68
2021/08/08 06:46:28;;;;;;;3.25;1.82;;;;;;;20.43;70.65;99407.49;1694995;83;21029;-68
2021/08/08 06:48:54;;;;;;;4.50;1.55;;;;;;;20.54;68.84;99406.19;1647119;86;20923;-69
2021/08/08 06:51:21;;;;;;;4.67;1.62;;;;;;;20.61;68.09;99416.02;1668385;86;20919;-67
2021/08/08 06:53:48;;;;;;;2.87;2.00;;;;;;;20.70;68.04;99413.70;1666980;86;21062;-67
2021/08/08 06:56:15;;;;;;;6.08;2.15;;;;;;;20.79;68.76;99414.77;1665685;85;20986;-66
2021/08/08 06:58:42;;;;;;;12.60;3.40;;;;;;;20.88;70.35;99410.41;1664092;86;20943;-66
2021/08/08 07:01:09;;;;;;;4.60;2.20;;;;;;;21.00;69.16;99417.08;1659429;86;21083;-67
2021/08/08 07:03:35;;;;;;;4.30;2.10;;;;;;;21.07;70.27;99415.73;1654195;85;21092;-67
2021/08/08 07:06:02;;;;;;;5.42;1.72;;;;;;;21.19;70.10;99419.39;1646200;85;21644;-68
2021/08/08 07:08:29;;;;;;;3.92;1.92;;;;;;;21.29;68.54;99415.89;1648463;86;21499;-68
2021/08/08 07:10:55;;;;;;;3.37;1.80;;;;;;;21.35;69.04;99419.91;1646398;86;21548;-68
2021/08/08 07:13:22;;;;;;;3.05;2.20;;;;;;;21.39;68.52;99417.91;1646049;85;21683;-67
2021/08/08 07:15:50;;;;;;;3.12;2.08;;;;;;;21.47;67.74;99413.96;1648399;86;21559;-67
2021/08/08 07:18:16;;;;;;;10.55;2.30;;;;;;;21.57;69.27;99411.81;1646595;86;23264;-69
2021/08/08 07:20:43;;;;;;;3.40;1.98;;;;;;;21.75;68.41;99417.47;1645731;86;21570;-68
2021/08/08 07:23:10;;;;;;;5.45;2.22;;;;;;;21.92;67.27;99416.73;1648296;86;21008;-68
2021/08/08 07:25:37;;;;;;;4.60;2.10;;;;;;;22.08;64.19;99421.97;1646705;86;21073;-68
2021/08/08 07:28:05;;;;;;;3.98;2.05;;;;;;;22.14;62.00;99418.98;1645843;86;21059;-67
2021/08/08 07:30:33;;;;;;;7.20;2.25;;;;;;;22.20;63.70;99421.59;1648206;85;21462;-67
2021/08/08 07:33:00;;;;;;;3.37;2.33;;;;;;;22.34;62.13;99422.22;1647687;86;20934;-67
2021/08/08 07:35:27;;;;;;;3.60;2.40;;;;;;;22.48;61.66;99428.42;1645455;85;20988;-68
2021/08/08 07:37:54;;;;;;;5.67;2.30;;;;;;;22.59;60.54;99427.20;1647495;86;21079;-67
2021/08/08 07:40:21;;;;;;;2.98;2.17;;;;;;;22.69;60.56;99428.41;1641610;86;21522;-67
2021/08/08 07:42:49;;;;;;;5.08;2.58;;;;;;;22.78;60.91;99430.20;1648324;86;21221;-67
2021/08/08 07:45:18;;;;;;;3.17;1.95;;;;;;;22.86;57.56;99429.63;1646806;86;21033;-67
2021/08/08 07:47:45;;;;;;;2.77;2.20;;;;;;;22.90;59.18;99430.43;1645586;85;21574;-67
2021/08/08 07:50:12;;;;;;;3.60;2.15;;;;;;;23.03;58.39;99433.02;1648645;86;21043;-67
2021/08/08 07:52:39;;;;;;;4.47;1.80;;;;;;;23.17;57.77;99444.77;1656950;86;21559;-68
2021/08/08 07:55:07;;;;;;;3.98;1.60;;;;;;;23.30;56.06;99439.73;1677998;85;21114;-68
2021/08/08 07:57:34;;;;;;;5.90;1.87;;;;;;;23.45;54.17;99439.09;1680668;83;21471;-68
2021/08/08 08:00:04;;;;;;;3.25;1.67;;;;;;;23.58;53.09;99440.89;1681583;83;20968;-69
2021/08/08 08:02:33;;;;;;;2.27;1.75;;;;;;;23.78;52.39;99432.77;1688597;85;20968;-68
2021/08/08 08:05:00;;;;;;;4.40;1.95;;;;;;;24.01;53.10;99433.06;1689536;85;20903;-71
2021/08/08 08:07:27;;;;;;;4.87;1.90;;;;;;;24.34;51.22;99439.48;1690067;84;21125;-67
2021/08/08 08:09:55;;;;;;;4.50;2.05;;;;;;;24.69;52.02;99441.83;1689580;84;20943;-68
2021/08/08 08:12:23;;;;;;;6.25;1.90;;;;;;;25.07;51.65;99436.29;1689494;84;20931;-68
2021/08/08 08:14:50;;;;;;;2.62;1.75;;;;;;;25.44;50.58;99432.66;1688311;85;20955;-69
2021/08/08 08:17:16;;;;;;;3.02;1.60;;;;;;;25.78;46.78;99441.93;1680014;85;20864;-69
2021/08/08 08:19:45;;;;;;;3.58;1.57;;;;;;;26.01;46.09;99444.02;1682300;84;21195;-69
2021/08/08 08:22:16;;;;;;;2.70;1.65;;;;;;;26.31;45.80;99443.22;1690425;84;21577;-68
2021/08/08 08:24:41;;;;;;;1.67;1.47;;;;;;;26.63;43.92;99434.27;1688301;84;20996;-71
2021/08/08 08:27:07;;;;;;;5.03;1.60;;;;;;;26.87;43.35;99435.88;1688266;84;22002;-68
2021/08/08 08:29:34;;;;;;;5.83;1.75;;;;;;;27.01;41.92;99430.63;1688370;84;21571;-80
2021/08/08 08:32:02;;;;;;;2.72;1.55;;;;;;;27.03;41.60;99434.42;1689115;84;21148;-74
2021/08/08 08:34:28;;;;;;;2.92;1.25;;;;;;;27.07;41.82;99432.34;1689464;84;20971;-69
2021/08/08 08:36:57;;;;;;;4.08;1.70;;;;;;;27.08;41.59;99438.95;1689594;84;20920;-71
2021/08/08 08:39:23;;;;;;;3.02;1.87;;;;;;;27.21;42.35;99435.67;1650255;86;21027;-69
2021/08/08 08:41:53;;;;;;;3.87;2.00;;;;;;;27.41;42.40;99436.31;1681294;85;21030;-71
2021/08/08 08:44:20;;;;;;;3.75;2.15;;;;;;;27.59;40.44;99432.56;1683094;85;21127;-71
2021/08/08 08:46:48;;;;;;;7.25;1.77;;;;;;;27.64;39.55;99437.70;1683018;85;20951;-71
2021/08/08 08:49:22;;;;;;;1.95;1.62;;;;;;;27.68;40.01;99436.22;1682990;85;21454;-71
2021/08/08 08:51:56;;;;;;;4.05;2.00;;;;;;;27.85;39.07;99434.41;1682998;85;20963;-71
2021/08/08 08:54:23;;;;;;;3.67;2.12;;;;;;;28.17;38.82;99425.86;1683053;85;20900;-71
2021/08/08 08:56:50;;;;;;;3.15;1.70;;;;;;;28.38;38.77;99428.81;1682851;84;21181;-71
2021/08/08 08:59:18;;;;;;;3.33;2.10;;;;;;;28.59;39.60;99425.47;1682934;85;20952;-69
2021/08/08 09:01:46;;;;;;;3.52;1.80;;;;;;;28.64;39.54;99416.48;1682952;85;20951;-70
2021/08/08 09:04:14;;;;;;;3.22;1.92;;;;;;;28.75;38.52;99417.62;1663907;85;21019;-70
2021/08/08 09:06:43;;;;;;;2.60;1.70;;;;;;;28.74;37.83;99419.66;1683105;85;20951;-71
2021/08/08 09:09:11;;;;;;;5.28;1.87;;;;;;;28.84;38.23;99414.38;1663496;84;21102;-71
2021/08/08 09:11:41;;;;;;;4.58;1.80;;;;;;;28.91;38.51;99412.75;1666359;85;20974;-71
2021/08/08 09:14:12;;;;;;;2.25;1.40;;;;;;;29.05;37.16;99413.63;1683351;85;20919;-71
2021/08/08 09:16:44;;;;;;;;;;;;;;;29.05;36.64;99411.59;1685495;84;20923;-71
2021/08/08 09:19:22;;;;;;;1.77;1.57;;;;;;;29.09;35.75;99412.91;1683395;85;20127;-72
2021/08/08 09:21:51;;;;;;;5.58;2.02;;;;;;;29.18;36.25;99412.45;1683037;85;21742;-72
2021/08/08 09:24:28;;;;;;;3.20;1.75;;;;;;;29.10;36.14;99409.64;1683185;85;21116;-71
2021/08/08 09:27:11;;;;;;;11.05;2.02;;;;;;;29.18;37.24;99413.06;1683008;85;20935;-72
2021/08/08 09:29:44;;;;;;;4.95;1.72;;;;;;;29.30;36.43;99412.95;1682864;85;21560;-72
2021/08/08 09:32:11;;;;;;;4.35;1.62;;;;;;;29.41;37.47;99404.97;1684653;85;21619;-72
2021/08/08 09:34:41;;;;;;;2.35;1.80;;;;;;;29.58;35.97;99406.50;1713044;83;21932;-71
2021/08/08 09:37:19;;;;;;;3.58;1.72;;;;;;;29.54;37.80;99408.63;1727769;83;20890;-71
2021/08/08 09:39:50;;;;;;;2.50;1.60;;;;;;;29.69;36.20;99401.33;1723697;83;20917;-71
2021/08/08 09:42:21;;;;;;;;;;;;;;;29.96;34.74;99398.72;1730368;83;20902;-71
2021/08/08 09:44:57;;;;;;;4.67;2.10;;;;;;;30.02;37.85;99396.32;1728011;83;20157;-72
2021/08/08 09:47:41;;;;;;;3.52;2.25;;;;;;;30.07;37.46;99398.56;1727929;83;21132;-70
2021/08/08 09:50:13;;;;;;;4.92;2.00;;;;;;;30.21;36.57;99404.41;1699208;83;20976;-69
2021/08/08 09:52:39;;;;;;;6.53;1.62;;;;;;;30.40;36.45;99406.84;1723456;83;20969;-70
2021/08/08 09:55:19;;;;;;;2.77;2.05;;;;;;;30.55;36.00;99403.72;1727715;83;20894;-72
2021/08/08 09:57:46;;;;;;;5.97;2.15;;;;;;;30.56;35.40;99399.64;1718457;83;21057;-70
2021/08/08 10:00:34;;;;;;;3.02;1.90;;;;;;;30.46;34.78;99397.32;1696527;83;21832;-71
2021/08/08 10:03:05;;;;;;;6.92;2.45;;;;;;;30.46;36.18;99404.40;1702249;83;21002;-72
2021/08/08 10:05:34;;;;;;;;;;;;;;;30.52;35.67;99404.00;1705910;83;21025;-70
2021/08/08 10:08:16;;;;;;;6.53;2.95;;;;;;;30.65;35.07;99398.32;1698579;83;20118;-73
2021/08/08 10:10:47;;;;;;;4.50;1.85;;;;;;;30.72;35.47;99403.75;1698967;83;20931;-72
2021/08/08 10:13:52;;;;;;;5.25;1.95;;;;;;;30.86;36.27;99406.10;1698466;83;20980;-71
2021/08/08 10:16:20;;;;;;;4.95;2.20;;;;;;;30.81;33.96;99399.59;1699233;83;20907;-71
2021/08/08 10:18:55;;;;;;;8.78;1.72;;;;;;;30.70;34.07;99404.03;1705550;82;21587;-71
2021/08/08 10:21:23;;;;;;;7.85;2.17;;;;;;;30.69;34.17;99407.49;1698413;83;21007;-71
2021/08/08 10:23:53;;;;;;;3.67;1.80;;;;;;;30.60;35.25;99409.47;1700154;83;21038;-72
2021/08/08 10:26:20;;;;;;;3.20;2.00;;;;;;;30.54;36.37;99406.37;1697725;83;21132;-72
2021/08/08 10:28:49;;;;;;;2.15;1.95;;;;;;;30.70;36.84;99409.08;1702418;83;21093;-73
2021/08/08 10:31:17;;;;;;;4.42;2.00;;;;;;;30.82;36.48;99412.52;1708217;83;21002;-72
2021/08/08 10:33:48;;;;;;;4.03;1.90;;;;;;;30.91;35.03;99411.81;1710655;83;21430;-71
2021/08/08 10:36:20;;;;;;;3.00;2.17;;;;;;;31.07;35.28;99409.45;1710494;83;21061;-71
2021/08/08 10:38:48;;;;;;;5.12;2.05;;;;;;;31.23;35.86;99406.45;1710051;83;21126;-71
2021/08/08 10:41:15;;;;;;;5.20;2.10;;;;;;;31.18;34.68;99412.73;1687993;83;20966;-72
2021/08/08 10:43:46;;;;;;;3.40;2.00;;;;;;;31.10;37.08;99414.20;1684079;83;21600;-71
2021/08/08 10:46:14;;;;;;;5.08;2.20;;;;;;;31.26;34.71;99418.28;1696459;83;21481;-71
2021/08/08 10:48:44;;;;;;;6.12;2.05;;;;;;;31.45;33.47;99419.23;1704684;83;20992;-71
2021/08/08 10:51:26;;;;;;;12.28;4.20;;;;;;;31.51;33.50;99415.34;1704335;83;21073;-71
2021/08/08 10:54:07;;;;;;;7.10;2.70;;;;;;;31.56;34.73;99416.80;1698869;83;21064;-71
2021/08/08 10:56:45;;;;;;;9.80;2.40;;;;;;;31.64;32.60;99417.33;1699526;83;20966;-70
2021/08/08 10:59:27;;;;;;;5.17;2.60;;;;;;;31.65;32.28;99411.81;1705984;82;21093;-70
2021/08/08 11:02:10;;;;;;;2.47;1.90;;;;;;;31.64;33.96;99414.48;1702790;83;21010;-70
2021/08/08 11:04:38;;;;;;;2.72;1.82;;;;;;;31.64;32.74;99411.65;1697217;83;39291;-70
2021/08/08 11:07:06;;;;;;;3.62;2.17;;;;;;;31.66;32.67;99413.40;1702820;83;21045;-70
2021/08/08 11:09:35;;;;;;;5.03;2.50;;;;;;;31.70;33.69;99406.37;1700426;83;20995;-70
2021/08/08 11:12:03;;;;;;;4.42;2.42;;;;;;;31.76;33.67;99409.40;1691274;83;21146;-70
2021/08/08 11:14:30;;;;;;;2.75;1.72;;;;;;;31.72;34.31;99405.27;1692085;83;21452;-71
2021/08/08 11:17:07;;;;;;;3.20;1.87;;;;;;;31.73;33.97;99404.65;1690367;83;21135;-72
2021/08/08 11:19:39;;;;;;;3.85;1.70;;;;;;;31.76;32.41;99415.08;1694300;83;21095;-72
2021/08/08 11:22:11;;;;;;;2.45;1.57;;;;;;;31.58;32.40;99421.38;1692240;83;21057;-72
2021/08/08 11:24:38;;;;;;;2.10;1.80;;;;;;;31.61;32.04;99415.41;1697233;83;21097;-72
2021/08/08 11:27:07;;;;;;;2.58;1.70;;;;;;;31.69;33.51;99420.39;1683279;85;20887;-73
2021/08/08 11:29:34;;;;;;;2.37;1.47;;;;;;;31.63;31.28;99417.95;1684126;83;21123;-73
2021/08/08 11:32:04;;;;;;;3.25;1.70;;;;;;;31.65;34.19;99415.44;1711042;83;20867;-73
2021/08/08 11:34:32;;;;;;;1.50;1.40;;;;;;;31.78;32.63;99416.16;1686609;83;20939;-72
2021/08/08 11:36:59;;;;;;;2.72;1.77;;;;;;;31.88;32.06;99411.34;1674729;85;21022;-72